Airport ID:KTME
Update Time (UTC):23/05/2019 11:14
Wind Speed (Knots):9
Wind Direction (Magnetic):150
Temperature (°C):25.7
Dew Point (°C):23.6
Humidity (%):88.2
Altimeter (inHg):29.97
Density Altitude (Feet):01800
Visibility (Miles):5
Clouds (Hundreds of feet):BKN019 OVC025
Present Weather:BR
METAR:METAR KTME 231110Z AUTO 16008G14KT 4SM BR BKN020 OVC025 26/24 A2997 RMK AO2

The data displayed is for advisory purposes only and is not to be used for flight planning or operations.

This page is not automatically refreshed. Reload the page to see current data.